Terminal Aerodrome Forecast
Issued by NWS Glasgow, MT

Home | Current Version | Previous Version | Text Only | Print | Product List | Glossary On
Versions: 1 2 3 4 5 6 7 8 9 10 11 12
000
FTUS45 KGGW 200520
TAFGGW
TAF
KGGW 200520Z 2006/2106 23009KT P6SM BKN120 WS020/27040KT
     FM200900 25013KT P6SM BKN120 WS020/27040KT
     FM201600 27015KT P6SM BKN100
     FM201800 30021G29KT P6SM BKN080
     FM210000 32016KT P6SM SCT080=

USA.gov is the U.S. government's official web portal to all federal, state and local government web resources and services.